Time;durP1;ratioP1;P1;durP2;ratioP2;P2;SDS_P1;SDS_P2;PMS_P1;PMS_P2;Temp;Humidity;BMP_temperature;BMP_pressure;BME280_temperature;BME280_humidity;BME280_pressure;Samples;Min_cycle;Max_cycle;Signal;HPM_P1;HPM_P2
2021/10/05 00:00:09;;;;;;;;;0.00;0.00;;;;;15.71;64.83;100766.78;5083593;27;45362;-72
2021/10/05 00:02:35;;;;;;;;;0.00;0.00;;;;;15.60;64.95;100745.06;5081974;28;45480;-72
2021/10/05 00:05:00;;;;;;;;;0.00;0.00;;;;;15.64;65.17;100757.25;5083936;27;45275;-72
2021/10/05 00:07:26;;;;;;;;;0.00;0.00;;;;;15.55;64.78;100739.88;5099348;27;46773;-72
2021/10/05 00:09:51;;;;;;;;;0.00;0.00;;;;;15.47;65.17;100736.47;5082533;28;45318;-72
2021/10/05 00:12:16;;;;;;;;;0.00;0.00;;;;;15.46;65.10;100743.47;5071830;27;45597;-72
2021/10/05 00:14:42;;;;;;;;;0.00;0.00;;;;;15.42;65.22;100741.78;5061936;28;45312;-72
2021/10/05 00:17:08;;;;;;;;;0.00;0.00;;;;;15.38;65.46;100743.59;5062719;28;45553;-72
2021/10/05 00:19:33;;;;;;;;;0.00;0.00;;;;;15.36;65.67;100742.72;5063509;28;45285;-72
2021/10/05 00:21:58;;;;;;;;;0.00;0.00;;;;;15.19;66.02;100711.44;5063552;28;45432;-73
2021/10/05 00:24:24;;;;;;;;;0.00;0.00;;;;;15.34;66.13;100741.84;5085104;27;45458;-72
2021/10/05 00:26:49;;;;;;;;;0.00;0.00;;;;;15.25;65.65;100726.25;5103965;27;45268;-72
2021/10/05 00:29:15;;;;;;;;;0.00;0.00;;;;;15.30;66.33;100751.53;5104148;27;45289;-72
2021/10/05 00:31:40;;;;;;;;;0.00;0.00;;;;;15.22;66.31;100729.75;5104374;27;45241;-73
2021/10/05 00:34:05;;;;;;;;;0.50;0.00;;;;;15.15;66.24;100713.22;5102915;27;45484;-72
2021/10/05 00:36:31;;;;;;;;;0.00;0.00;;;;;15.16;66.34;100730.69;5102392;27;48213;-72
2021/10/05 00:38:56;;;;;;;;;0.00;0.00;;;;;15.19;66.35;100725.41;5104054;27;45291;-72
2021/10/05 00:41:22;;;;;;;;;0.00;0.00;;;;;15.30;66.41;100732.28;5102682;27;45489;-73
2021/10/05 00:43:48;;;;;;;;;0.00;0.00;;;;;15.11;66.27;100711.53;5102822;27;45368;-72
2021/10/05 00:46:13;;;;;;;;;0.00;0.00;;;;;15.22;66.01;100731.53;5103566;27;45884;-72
2021/10/05 00:48:38;;;;;;;;;0.00;0.00;;;;;15.18;66.34;100725.44;5103644;27;45258;-72
2021/10/05 00:51:04;;;;;;;;;0.00;0.00;;;;;15.14;66.39;100723.72;5102558;27;45312;-72
2021/10/05 00:53:29;;;;;;;;;0.00;0.00;;;;;15.01;66.48;100700.25;5103931;27;45657;-72
2021/10/05 00:55:55;;;;;;;;;0.00;0.00;;;;;15.08;66.58;100711.56;5103578;27;45332;-72
2021/10/05 00:58:20;;;;;;;;;0.00;0.00;;;;;15.05;66.47;100699.38;5103604;27;45263;-72
2021/10/05 01:00:46;;;;;;;;;0.00;0.00;;;;;15.00;66.63;100690.66;5102237;27;45314;-72
2021/10/05 01:03:11;;;;;;;;;0.00;0.00;;;;;15.05;66.82;100701.97;5102514;27;45413;-73
2021/10/05 01:05:37;;;;;;;;;1.00;0.00;;;;;15.11;66.88;100703.66;5102048;27;48021;-72
2021/10/05 01:08:02;;;;;;;;;0.00;0.00;;;;;15.06;66.72;100697.59;5103366;27;45328;-72
2021/10/05 01:10:28;;;;;;;;;0.00;0.00;;;;;14.96;66.83;100686.34;5103735;27;45183;-72
2021/10/05 01:12:54;;;;;;;;;0.00;0.00;;;;;15.06;66.94;100694.97;5085450;27;45241;-73
2021/10/05 01:15:22;;;;;;;;;0.00;0.00;;;;;15.01;66.95;100687.16;5081258;28;47147;-72
2021/10/05 01:17:48;;;;;;;;;0.00;0.00;;;;;15.06;66.98;100682.75;5082693;27;45364;-73
2021/10/05 01:20:14;;;;;;;;;0.00;0.00;;;;;15.04;66.91;100678.41;5081423;28;45341;-72
2021/10/05 01:22:40;;;;;;;;;0.00;0.00;;;;;15.13;66.98;100682.69;5083032;27;45445;-72
2021/10/05 01:25:08;;;;;;;;;0.00;0.00;;;;;14.91;67.02;100652.31;5082669;27;45395;-72
2021/10/05 01:27:41;;;;;;;;;0.00;0.00;;;;;14.99;67.17;100657.47;5098511;27;45385;-72
2021/10/05 01:30:06;;;;;;;;;0.00;0.00;;;;;14.88;67.00;100643.63;5098521;27;45321;-72
2021/10/05 01:32:32;;;;;;;;;0.00;0.00;;;;;14.84;67.26;100632.31;5083007;28;45440;-72
2021/10/05 01:34:57;;;;;;;;;0.00;0.00;;;;;14.79;67.14;100634.97;5082606;27;45517;-72
2021/10/05 01:37:22;;;;;;;;;0.00;0.00;;;;;14.86;67.45;100648.00;5080369;28;45928;-72
2021/10/05 01:39:48;;;;;;;;;0.00;0.00;;;;;14.85;67.51;100638.41;5082879;27;45269;-72
2021/10/05 01:42:14;;;;;;;;;0.00;0.00;;;;;14.77;67.43;100623.63;5083031;27;45309;-72
2021/10/05 01:44:40;;;;;;;;;0.00;0.00;;;;;14.84;67.51;100634.91;5082521;28;46218;-72
2021/10/05 01:47:07;;;;;;;;;0.00;0.00;;;;;14.77;67.57;100625.38;5082443;27;45177;-72
2021/10/05 01:49:33;;;;;;;;;0.00;0.00;;;;;14.68;67.85;100608.00;5081231;28;45350;-72
2021/10/05 01:51:59;;;;;;;;;0.00;0.00;;;;;14.71;67.76;100613.19;5098338;27;45421;-72
2021/10/05 01:54:24;;;;;;;;;0.00;0.00;;;;;14.63;68.10;100601.91;5082298;27;45326;-72
2021/10/05 01:56:50;;;;;;;;;0.00;0.00;;;;;14.55;67.70;100588.91;5081101;28;45906;-72
2021/10/05 01:59:16;;;;;;;;;0.00;0.00;;;;;14.50;68.37;100575.00;5081164;28;45400;-72
2021/10/05 02:01:41;;;;;;;;;0.00;0.00;;;;;14.59;68.39;100598.47;5082706;28;45421;-72
2021/10/05 02:04:08;;;;;;;;;0.00;0.00;;;;;14.60;68.59;100607.19;5080687;28;48082;-72
2021/10/05 02:06:35;;;;;;;;;0.00;0.00;;;;;14.58;68.45;100602.00;5082164;27;45242;-72
2021/10/05 02:09:02;;;;;;;;;0.00;0.00;;;;;14.44;68.34;100568.06;5080926;28;45185;-72
2021/10/05 02:11:27;;;;;;;;;0.00;0.00;;;;;14.17;69.29;100536.03;5081168;28;45458;-72
2021/10/05 02:13:52;;;;;;;;;0.00;0.00;;;;;14.49;68.91;100575.88;5082138;27;45431;-72
2021/10/05 02:16:18;;;;;;;;;0.00;0.00;;;;;14.49;69.37;100581.97;5097563;27;45357;-72
2021/10/05 02:18:46;;;;;;;;;0.00;0.00;;;;;14.25;68.91;100542.06;5082248;27;45287;-72
2021/10/05 02:21:20;;;;;;;;;0.00;0.00;;;;;14.30;69.06;100542.88;5098264;27;45478;-72
2021/10/05 02:26:31;;;;;;;;;0.00;0.00;;;;;14.35;69.09;100545.47;5101864;27;45374;-72
2021/10/05 02:28:57;;;;;;;;;0.00;0.00;;;;;14.22;68.95;100522.91;5099109;27;45421;-72
2021/10/05 02:31:23;;;;;;;;;0.00;0.00;;;;;14.34;69.37;100535.88;5102060;27;45607;-72
2021/10/05 02:33:48;;;;;;;;;0.00;0.00;;;;;14.46;69.41;100547.97;5102326;27;46545;-72
2021/10/05 02:36:13;;;;;;;;;0.00;0.00;;;;;14.32;69.13;100520.19;5102131;27;45340;-72
2021/10/05 02:38:39;;;;;;;;;0.00;0.00;;;;;14.36;69.13;100515.75;5101084;27;45632;-72
2021/10/05 02:41:04;;;;;;;;;0.00;0.00;;;;;14.48;69.38;100529.63;5102663;27;45652;-72
2021/10/05 02:43:30;;;;;;;;;0.00;0.00;;;;;14.36;69.34;100510.53;5102331;27;45229;-72
2021/10/05 02:45:56;;;;;;;;;0.00;0.00;;;;;14.30;69.54;100494.88;5102166;27;45210;-73
2021/10/05 02:48:21;;;;;;;;;0.00;0.00;;;;;14.35;69.55;100506.19;5102566;27;45238;-72
2021/10/05 02:50:46;;;;;;;;;0.00;0.00;;;;;14.46;69.49;100511.31;5106233;27;45486;-72
2021/10/05 02:53:12;;;;;;;;;0.00;0.00;;;;;14.32;69.47;100490.50;5103981;27;48136;-72
2021/10/05 02:55:38;;;;;;;;;0.00;0.00;;;;;14.44;69.35;100505.22;5105790;27;45539;-72
2021/10/05 02:58:03;;;;;;;;;0.00;0.00;;;;;14.20;69.61;100454.84;5104536;27;45348;-72
2021/10/05 03:00:28;;;;;;;;;0.00;0.00;;;;;14.30;69.96;100473.94;5104470;27;45326;-72
2021/10/05 03:02:54;;;;;;;;;1.00;0.00;;;;;14.31;69.74;100475.69;5104639;27;46165;-72
2021/10/05 03:05:19;;;;;;;;;0.00;0.00;;;;;14.28;69.79;100470.47;5105247;27;45352;-72
2021/10/05 03:07:45;;;;;;;;;1.00;0.00;;;;;14.35;69.79;100489.59;5105300;27;45439;-72
2021/10/05 03:10:10;;;;;;;;;0.00;0.00;;;;;14.30;69.62;100473.94;5103730;27;45306;-72
2021/10/05 03:12:35;;;;;;;;;0.00;0.00;;;;;14.28;70.70;100471.31;5090787;27;45366;-72
2021/10/05 03:15:01;;;;;;;;;0.00;0.00;;;;;14.29;70.16;100472.19;5084802;27;45316;-72
2021/10/05 03:17:26;;;;;;;;;0.00;0.00;;;;;14.30;69.71;100466.06;5084761;27;45518;-72
2021/10/05 03:19:52;;;;;;;;;0.00;0.00;;;;;14.46;70.12;100485.13;5084912;27;45248;-72
2021/10/05 03:22:17;;;;;;;;;0.00;0.00;;;;;14.42;70.22;100467.69;5083960;27;45479;-72
2021/10/05 03:24:43;;;;;;;;;0.00;0.00;;;;;14.39;70.07;100447.66;5082527;28;45269;-72
2021/10/05 03:27:10;;;;;;;;;0.00;0.00;;;;;14.52;70.12;100458.84;5084559;27;45208;-72
2021/10/05 03:29:36;;;;;;;;;0.00;0.00;;;;;14.53;69.92;100451.84;5084803;27;45487;-72
2021/10/05 03:32:01;;;;;;;;;0.75;0.00;;;;;14.61;70.18;100454.38;5082746;28;47417;-72
2021/10/05 03:34:27;;;;;;;;;3.25;0.00;;;;;14.51;70.10;100425.69;5083948;27;45159;-72
2021/10/05 03:36:52;;;;;;;;;0.00;0.00;;;;;14.45;69.76;100420.50;5084079;27;45220;-72
2021/10/05 03:39:17;;;;;;;;;0.00;0.00;;;;;14.51;69.85;100422.19;5084581;27;45408;-72
2021/10/05 03:41:43;;;;;;;;;0.00;0.00;;;;;14.40;70.12;100398.78;5083975;27;45661;-72
2021/10/05 03:44:08;;;;;;;;;0.00;0.00;;;;;14.47;70.28;100404.78;5084457;27;45325;-72
2021/10/05 03:46:33;;;;;;;;;0.00;0.00;;;;;14.19;70.16;100359.72;5084382;27;45267;-71
2021/10/05 03:48:59;;;;;;;;;0.00;0.00;;;;;14.41;70.24;100387.41;5084367;27;45278;-72
2021/10/05 03:51:24;;;;;;;;;0.00;0.00;;;;;14.41;70.65;100400.50;5082557;28;46902;-72
2021/10/05 03:53:49;;;;;;;;;0.00;0.00;;;;;14.39;70.53;100405.75;5082527;27;45360;-71
2021/10/05 03:56:15;;;;;;;;;0.00;0.00;;;;;14.38;70.78;100406.66;5083970;27;45311;-72
2021/10/05 03:58:40;;;;;;;;;0.00;0.00;;;;;14.34;70.67;100386.63;5083887;27;45250;-72
2021/10/05 04:01:05;;;;;;;;;1.00;0.00;;;;;14.36;70.78;100392.69;5083087;27;45351;-71
2021/10/05 04:03:32;;;;;;;;;0.50;0.00;;;;;14.25;70.63;100377.13;5083606;27;45313;-72
2021/10/05 04:05:57;;;;;;;;;0.00;0.00;;;;;14.36;70.87;100392.69;5084053;27;45562;-72
2021/10/05 04:08:23;;;;;;;;;1.00;0.00;;;;;14.37;70.49;100383.97;5083713;27;45392;-72
2021/10/05 04:10:48;;;;;;;;;0.00;0.00;;;;;14.36;70.62;100378.75;5083462;27;45271;-72
2021/10/05 04:13:14;;;;;;;;;0.00;0.00;;;;;14.36;70.85;100365.66;5079475;27;45279;-72
2021/10/05 04:15:39;;;;;;;;;1.00;0.00;;;;;14.42;70.58;100374.28;5062760;28;45293;-72
2021/10/05 04:18:05;;;;;;;;;0.00;0.00;;;;;14.38;70.64;100363.88;5062030;28;45248;-72
2021/10/05 04:20:30;;;;;;;;;0.00;0.00;;;;;14.45;70.36;100360.28;5063217;28;45544;-72
2021/10/05 04:22:56;;;;;;;;;0.00;0.00;;;;;14.41;70.67;100356.84;5062918;28;45234;-72
2021/10/05 04:25:22;;;;;;;;;0.00;0.00;;;;;14.47;70.91;100358.53;5079689;28;45405;-72
2021/10/05 04:27:49;;;;;;;;;0.00;0.00;;;;;14.47;70.97;100358.53;5081923;28;45632;-72
2021/10/05 04:30:14;;;;;;;;;0.00;0.00;;;;;14.48;70.67;100341.06;5083112;27;46244;-72
2021/10/05 04:32:40;;;;;;;;;0.00;0.00;;;;;14.53;70.35;100349.72;5082885;28;45331;-72
2021/10/05 04:35:07;;;;;;;;;0.00;0.00;;;;;14.57;70.42;100346.16;5081396;28;45291;-72
2021/10/05 04:37:32;;;;;;;;;0.00;0.00;;;;;14.50;70.48;100326.19;5080223;28;45581;-72
2021/10/05 04:39:57;;;;;;;;;0.00;0.00;;;;;14.52;70.62;100327.03;5081055;28;48282;-72
2021/10/05 04:42:24;;;;;;;;;0.00;0.00;;;;;14.58;70.22;100334.81;5081365;28;45336;-72
2021/10/05 04:44:50;;;;;;;;;0.75;0.00;;;;;14.42;70.53;100303.59;5083152;27;45205;-72
2021/10/05 04:47:15;;;;;;;;;0.00;0.00;;;;;14.54;70.45;100314.75;5078343;28;45298;-72
2021/10/05 04:49:41;;;;;;;;;0.00;0.00;;;;;14.26;70.21;100263.66;5061103;28;46200;-72
2021/10/05 04:52:06;;;;;;;;;0.00;0.00;;;;;14.64;70.33;100324.22;5061387;28;45252;-72
2021/10/05 04:54:32;;;;;;;;;0.75;0.75;;;;;14.54;70.24;100309.53;5060671;28;45282;-72
2021/10/05 04:56:57;;;;;;;;;0.00;0.00;;;;;14.65;70.11;100318.13;5062179;28;45474;-72
2021/10/05 04:59:23;;;;;;;;;0.50;0.00;;;;;14.64;70.39;100294.56;5063172;28;46383;-72
2021/10/05 05:01:48;;;;;;;;;0.00;0.00;;;;;14.67;70.07;100289.28;5068031;27;45425;-72
2021/10/05 05:04:16;;;;;;;;;0.00;0.00;;;;;14.64;70.31;100287.53;5082076;28;45405;-72
2021/10/05 05:06:42;;;;;;;;;0.00;0.00;;;;;14.49;70.17;100269.47;5082638;27;45400;-72
2021/10/05 05:09:07;;;;;;;;;0.00;0.00;;;;;14.42;70.49;100259.06;5080392;28;47207;-72
2021/10/05 05:11:32;;;;;;;;;0.00;0.00;;;;;14.51;70.65;100272.91;5072542;27;45442;-72
2021/10/05 05:14:05;;;;;;;;;0.00;0.00;;;;;14.47;70.25;100282.56;5082790;27;45303;-72
2021/10/05 05:16:30;;;;;;;;;0.00;0.00;;;;;14.51;70.65;100262.44;5082083;27;45434;-72
2021/10/05 05:18:55;;;;;;;;;0.00;0.00;;;;;14.52;70.66;100258.94;5078269;28;48177;-72
2021/10/05 05:21:21;;;;;;;;;0.00;0.00;;;;;14.44;70.74;100257.31;5068628;27;45480;-72
2021/10/05 05:23:46;;;;;;;;;0.00;0.00;;;;;14.41;70.78;100243.38;5082136;27;45323;-72
2021/10/05 05:26:12;;;;;;;;;0.00;0.00;;;;;14.35;70.79;100219.91;5081035;28;45472;-71
2021/10/05 05:28:37;;;;;;;;;0.00;0.00;;;;;14.49;71.25;100245.88;5079550;28;47035;-71
2021/10/05 05:31:02;;;;;;;;;0.00;0.00;;;;;14.29;71.02;100213.00;5079749;28;45309;-72
2021/10/05 05:33:28;;;;;;;;;0.00;0.00;;;;;14.27;71.26;100218.28;5068355;27;45167;-72
2021/10/05 05:35:53;;;;;;;;;0.00;0.00;;;;;14.40;71.28;100223.34;5088596;27;45278;-72
2021/10/05 05:38:21;;;;;;;;;0.00;0.00;;;;;14.13;71.40;100181.84;5076955;28;46339;-73
2021/10/05 05:40:47;;;;;;;;;0.00;0.00;;;;;14.26;71.34;100194.72;5075542;27;45604;-72
2021/10/05 05:43:12;;;;;;;;;0.00;0.00;;;;;14.25;71.45;100200.88;5074216;28;45281;-73
2021/10/05 05:45:38;;;;;;;;;0.00;0.00;;;;;14.27;71.46;100196.47;5079184;27;45285;-74
2021/10/05 05:48:03;;;;;;;;;0.00;0.00;;;;;14.39;71.12;100214.59;5072262;27;46133;-74
2021/10/05 05:50:29;;;;;;;;;0.00;0.00;;;;;14.37;71.19;100215.53;5060970;28;45365;-74
2021/10/05 05:52:54;;;;;;;;;0.00;0.00;;;;;14.30;71.11;100191.16;5060322;28;45306;-72
2021/10/05 05:55:20;;;;;;;;;0.00;0.00;;;;;14.28;71.26;100182.50;5062058;28;45325;-72
2021/10/05 05:57:48;;;;;;;;;0.00;0.00;;;;;14.38;71.17;100198.91;5060832;28;45338;-73
2021/10/05 06:00:14;;;;;;;;;0.00;0.00;;;;;14.37;70.84;100184.09;5061247;28;45381;-73
2021/10/05 06:02:40;;;;;;;;;0.00;0.00;;;;;14.42;70.94;100190.09;5060465;28;45258;-74
2021/10/05 06:05:06;;;;;;;;;0.00;0.00;;;;;14.41;71.06;100191.00;5065020;28;45429;-73
2021/10/05 06:07:31;;;;;;;;;0.00;0.00;;;;;14.32;71.21;100177.19;5068528;28;46430;-73
2021/10/05 06:09:57;;;;;;;;;0.75;0.75;;;;;14.41;71.00;100186.66;5076061;28;45385;-73
2021/10/05 06:12:25;;;;;;;;;0.00;0.00;;;;;14.43;71.85;100186.63;5074701;27;45254;-74
2021/10/05 06:14:50;;;;;;;;;0.00;0.00;;;;;14.57;70.95;100176.78;5074550;28;45570;-76
2021/10/05 06:17:16;;;;;;;;;1.00;1.00;;;;;14.62;70.93;100197.66;5079596;27;47567;-75
2021/10/05 06:19:41;;;;;;;;;0.00;0.00;;;;;14.62;70.81;100178.44;5064146;28;45448;-74
2021/10/05 06:22:07;;;;;;;;;0.00;0.00;;;;;14.51;70.60;100157.66;5065690;28;46630;-74
2021/10/05 06:24:32;;;;;;;;;0.25;0.00;;;;;14.54;70.97;100166.34;5084371;27;45325;-75
2021/10/05 06:26:57;;;;;;;;;0.00;0.00;;;;;14.59;70.99;100182.00;5085146;27;46292;-80
2021/10/05 06:29:23;;;;;;;;;0.75;0.00;;;;;14.40;70.91;100119.44;5067261;28;45491;-74
2021/10/05 06:31:49;;;;;;;;;0.00;0.00;;;;;14.60;71.19;100157.53;5064619;28;45372;-74
2021/10/05 06:34:14;;;;;;;;;0.00;0.00;;;;;14.56;70.93;100140.13;5067096;28;45411;-75
2021/10/05 06:36:40;;;;;;;;;2.00;0.00;;;;;14.51;71.37;100134.97;5067799;28;46512;-77
2021/10/05 06:39:05;;;;;;;;;0.00;0.00;;;;;14.59;71.02;100136.59;5067471;28;45330;-73
2021/10/05 06:41:31;;;;;;;;;0.75;0.00;;;;;14.55;71.14;100125.31;5061251;28;45352;-77
2021/10/05 06:43:56;;;;;;;;;0.00;0.00;;;;;14.55;71.08;100127.94;5083827;27;45522;-77
2021/10/05 06:46:22;;;;;;;;;0.00;0.00;;;;;14.55;71.50;100149.75;5061581;28;47053;-76
2021/10/05 06:48:47;;;;;;;;;0.00;0.00;;;;;14.57;71.81;100157.56;5066948;28;45335;-76
2021/10/05 06:51:13;;;;;;;;;0.25;0.25;;;;;14.39;71.83;100141.28;5072256;28;45460;-77
2021/10/05 06:53:39;;;;;;;;;1.00;0.00;;;;;14.55;72.29;100151.50;5063433;28;45308;-76
2021/10/05 06:56:04;;;;;;;;;0.00;0.00;;;;;14.61;72.71;100167.09;5062747;28;46278;-76
2021/10/05 06:58:30;;;;;;;;;0.00;0.00;;;;;14.59;72.54;100157.53;5065900;28;45306;-75
2021/10/05 07:00:55;;;;;;;;;0.00;0.00;;;;;14.52;71.93;100138.47;5083052;27;45479;-76
2021/10/05 07:03:21;;;;;;;;;0.00;0.00;;;;;14.60;72.72;100141.81;5066497;27;45343;-77
2021/10/05 07:05:46;;;;;;;;;0.00;0.00;;;;;14.46;73.14;100126.34;5061133;28;48055;-78
2021/10/05 07:08:15;;;;;;;;;0.50;0.50;;;;;14.48;73.43;100134.19;5069442;28;45611;-77
2021/10/05 07:10:40;;;;;;;;;0.00;0.00;;;;;14.53;73.40;100134.94;5073189;27;46635;-76
2021/10/05 07:13:07;;;;;;;;;0.00;0.00;;;;;14.24;73.77;100082.19;5066239;28;45590;-78
2021/10/05 07:15:33;;;;;;;;;0.00;0.00;;;;;14.52;73.92;100128.00;5075782;28;45634;-77
2021/10/05 07:17:58;;;;;;;;;0.00;0.00;;;;;14.49;73.72;100118.41;5073668;28;45391;-77
2021/10/05 07:20:26;;;;;;;;;0.00;0.00;;;;;14.30;73.88;100087.31;5069377;28;45350;-78
2021/10/05 07:22:51;;;;;;;;;0.00;0.00;;;;;14.40;74.67;100106.34;5071807;27;45469;-77
2021/10/05 07:25:17;;;;;;;;;0.00;0.00;;;;;14.34;74.07;100097.75;5083268;27;46548;-77
2021/10/05 07:27:50;;;;;;;;;0.00;0.00;;;;;14.22;74.39;100068.28;5082906;27;45341;-76
2021/10/05 07:30:16;;;;;;;;;0.00;0.00;;;;;14.45;74.87;100103.66;5081893;28;45328;-78
2021/10/05 07:32:41;;;;;;;;;0.25;0.00;;;;;14.35;74.80;100066.31;5066989;27;45497;-77
2021/10/05 07:35:07;;;;;;;;;0.00;0.00;;;;;14.18;74.91;100036.03;5069394;27;46179;-77
2021/10/05 07:37:32;;;;;;;;;0.00;0.00;;;;;14.42;75.14;100075.78;5062417;28;45518;-77
2021/10/05 07:39:58;;;;;;;;;0.00;0.00;;;;;14.37;75.14;100064.53;5056504;28;45504;-75
2021/10/05 07:42:26;;;;;;;;;0.00;0.00;;;;;14.31;75.24;100057.63;5068140;28;45602;-75
2021/10/05 07:44:52;;;;;;;;;0.50;0.00;;;;;13.92;75.11;99987.66;5064040;27;47653;-75
2021/10/05 07:47:17;;;;;;;;;0.00;0.00;;;;;14.47;75.33;100077.44;5076477;27;45389;-76
2021/10/05 07:49:43;;;;;;;;;0.00;0.00;;;;;14.14;75.28;100007.31;5071980;28;45460;-76
2021/10/05 07:52:08;;;;;;;;;0.00;0.00;;;;;14.46;75.49;100057.38;5064716;28;45566;-75
2021/10/05 07:54:34;;;;;;;;;0.00;0.00;;;;;14.12;75.53;100002.13;5062194;28;47324;-78
2021/10/05 07:56:59;;;;;;;;;0.00;0.00;;;;;14.09;75.72;100004.78;5076236;28;45670;-79
2021/10/05 07:59:25;;;;;;;;;0.00;0.00;;;;;14.06;76.21;99992.63;5078159;27;45318;-77
2021/10/05 08:01:51;;;;;;;;;0.00;0.00;;;;;14.02;76.43;99984.84;5059890;28;45454;-76
2021/10/05 08:04:18;;;;;;;;;0.00;0.00;;;;;14.25;76.27;100022.84;5066255;28;46626;-77
2021/10/05 08:06:44;;;;;;;;;0.00;0.00;;;;;14.29;76.27;100027.13;5072880;28;45474;-77
2021/10/05 08:09:12;;;;;;;;;0.00;0.00;;;;;14.22;75.86;99996.72;5068096;28;45433;-76
2021/10/05 08:11:38;;;;;;;;;0.00;0.00;;;;;14.40;76.28;100022.56;5066761;27;45378;-77
2021/10/05 08:14:03;;;;;;;;;0.00;0.00;;;;;13.76;75.92;99903.34;5077913;27;46289;-76
2021/10/05 08:16:31;;;;;;;;;0.00;0.00;;;;;14.40;76.19;100022.56;5080733;27;45417;-76
2021/10/05 08:18:58;;;;;;;;;0.00;0.00;;;;;14.51;75.67;100050.28;5068017;28;45515;-76
2021/10/05 08:21:23;;;;;;;;;0.00;0.00;;;;;14.59;75.97;100040.56;5066512;28;45496;-77
2021/10/05 08:23:52;;;;;;;;;0.00;0.00;;;;;14.37;75.63;100001.69;5061193;28;45655;-76
2021/10/05 08:26:20;;;;;;;;;0.00;0.00;;;;;14.30;75.92;99992.19;5079701;28;45279;-76
2021/10/05 08:28:50;;;;;;;;;0.00;0.00;;;;;14.47;75.88;100019.81;5076607;27;45391;-76
2021/10/05 08:31:18;;;;;;;;;1.00;0.00;;;;;14.11;76.01;99944.56;5073802;28;45465;-76
2021/10/05 08:33:44;;;;;;;;;0.00;0.00;;;;;14.47;75.76;99988.41;5067444;28;46027;-76
2021/10/05 08:36:09;;;;;;;;;0.00;0.00;;;;;14.41;75.36;99960.59;5080983;28;45311;-76
2021/10/05 08:38:36;;;;;;;;;0.00;0.00;;;;;14.72;75.25;100020.22;5081272;27;45428;-77
2021/10/05 08:41:04;;;;;;;;;0.00;0.00;;;;;14.56;76.33;99973.38;5059987;27;45711;-81
2021/10/05 08:43:29;;;;;;;;;0.00;0.00;;;;;14.65;75.22;99987.19;5067512;28;48070;-78
2021/10/05 08:45:57;;;;;;;;;0.00;0.00;;;;;14.79;75.60;100008.75;5068343;28;45407;-74
2021/10/05 08:48:28;;;;;;;;;0.00;0.00;;;;;14.79;75.40;100005.25;5059860;28;45522;-73
2021/10/05 08:50:54;;;;;;;;;0.00;0.00;;;;;14.58;75.88;99975.97;5065182;28;45378;-72
2021/10/05 08:53:19;;;;;;;;;0.00;0.00;;;;;14.72;75.29;100001.88;5066706;27;45828;-73
2021/10/05 08:55:45;;;;;;;;;0.00;0.00;;;;;14.82;75.40;99992.09;5065406;27;45269;-75
2021/10/05 08:58:10;;;;;;;;;0.00;0.00;;;;;14.86;75.48;99980.69;5060767;28;45446;-77
2021/10/05 09:00:37;;;;;;;;;0.00;0.00;;;;;14.72;75.34;99985.28;5061439;28;45288;-76
2021/10/05 09:03:03;;;;;;;;;0.00;0.00;;;;;14.04;75.85;99902.84;5065091;28;47211;-79
2021/10/05 09:05:29;;;;;;;;;0.00;0.00;;;;;14.77;75.82;100044.59;5060278;28;45433;-82
2021/10/05 09:07:57;;;;;;;;;0.00;0.00;;;;;14.05;76.55;99967.38;5071077;27;45488;-82
2021/10/05 09:10:26;;;;;;;;;0.00;0.00;;;;;14.59;76.99;100058.88;5074151;27;45527;-77
2021/10/05 09:12:52;;;;;;;;;0.00;0.00;;;;;14.45;76.40;100046.03;5066984;28;47107;-75
2021/10/05 09:15:20;;;;;;;;;0.75;0.00;;;;;14.52;75.73;100075.63;5072844;28;45400;-74
2021/10/05 09:17:55;;;;;;;;;0.00;0.00;;;;;14.51;75.67;100073.88;5060113;28;45521;-74
2021/10/05 09:20:26;;;;;;;;;0.00;0.00;;;;;14.46;75.34;100083.56;5060596;28;45417;-74
2021/10/05 09:23:12;;;;;;;;;0.00;0.00;;;;;14.49;74.82;100102.69;5058896;28;47192;-76
2021/10/05 09:25:52;;;;;;;;;0.00;0.00;;;;;14.21;74.19;100049.97;5066789;28;45890;-78
2021/10/05 09:28:17;;;;;;;;;0.00;0.00;;;;;14.37;74.15;100110.78;5061259;28;45385;-78
2021/10/05 09:30:43;;;;;;;;;0.00;0.00;;;;;14.24;74.08;100103.13;5061811;27;45434;-76
2021/10/05 09:33:08;;;;;;;;;0.00;0.00;;;;;14.34;74.38;100102.97;5067503;28;47077;-73
2021/10/05 09:35:44;;;;;;;;;0.00;0.00;;;;;14.31;74.42;100110.00;5079588;28;45289;-79
2021/10/05 09:38:15;;;;;;;;;0.00;0.00;;;;;14.27;74.19;100076.06;5078656;27;45444;-78
2021/10/05 09:40:41;;;;;;;;;0.00;0.00;;;;;14.67;73.61;100114.59;5071803;27;45464;-76
2021/10/05 09:43:21;;;;;;;;;0.00;0.00;;;;;14.75;73.45;100124.94;5069076;28;48425;-76
2021/10/05 09:45:48;;;;;;;;;0.00;0.00;;;;;14.65;73.02;100124.28;5066909;28;45517;-77
2021/10/05 09:48:13;;;;;;;;;0.00;0.00;;;;;14.45;72.79;100095.78;5061964;28;45520;-77
2021/10/05 09:50:39;;;;;;;;;0.00;0.00;;;;;14.39;72.90;100102.00;5066284;28;45349;-78
2021/10/05 09:53:08;;;;;;;;;0.00;0.00;;;;;14.62;72.98;100160.13;5063987;28;47614;-78
2021/10/05 09:55:36;;;;;;;;;0.00;0.00;;;;;14.53;72.79;100151.53;5076120;27;45405;-79
2021/10/05 09:58:02;;;;;;;;;0.00;0.00;;;;;14.31;72.72;100120.47;5060215;28;45346;-78
2021/10/05 10:00:32;;;;;;;;;0.00;0.00;;;;;14.57;72.97;100166.31;5063208;28;45548;-77
2021/10/05 10:02:58;;;;;;;;;0.00;0.00;;;;;14.63;72.84;100165.31;5063228;28;45488;-78
2021/10/05 10:05:25;;;;;;;;;0.00;0.00;;;;;14.39;72.47;100116.84;5073131;28;45351;-78
2021/10/05 10:07:53;;;;;;;;;0.00;0.00;;;;;14.48;72.31;100132.41;5083684;27;45456;-83
2021/10/05 10:10:30;;;;;;;;;0.00;0.00;;;;;14.69;72.50;100174.84;5077680;27;45491;-75
2021/10/05 10:13:00;;;;;;;;;0.00;0.00;;;;;14.62;72.21;100163.59;5062634;28;47673;-76
2021/10/05 10:15:29;;;;;;;;;0.00;0.00;;;;;14.63;72.46;100157.47;5081345;27;45987;-75
2021/10/05 10:18:11;;;;;;;;;0.00;0.00;;;;;14.80;72.32;100182.53;5073581;27;45347;-76
2021/10/05 10:20:42;;;;;;;;;0.00;0.00;;;;;14.84;72.38;100194.69;5077776;27;45311;-75
2021/10/05 10:23:25;;;;;;;;;0.00;0.00;;;;;14.79;71.94;100175.56;5068850;28;46517;-75
2021/10/05 10:25:55;;;;;;;;;0.00;0.00;;;;;14.95;71.63;100195.34;5076575;28;45673;-74
2021/10/05 10:28:32;;;;;;;;;0.00;0.00;;;;;15.02;71.80;100198.75;5082069;27;45431;-75
2021/10/05 10:31:00;;;;;;;;;0.00;0.00;;;;;14.99;71.45;100195.31;5062434;28;45528;-75
2021/10/05 10:33:28;;;;;;;;;0.00;0.00;;;;;15.05;71.38;100211.78;5070984;28;47292;-75
2021/10/05 10:35:56;;;;;;;;;0.00;0.00;;;;;15.09;71.24;100216.97;5082376;28;45434;-75
2021/10/05 10:38:35;;;;;;;;;0.00;0.00;;;;;15.09;70.58;100204.72;5078749;28;45365;-75
2021/10/05 10:41:21;;;;;;;;;0.00;0.00;;;;;14.90;70.78;100168.38;5065844;28;45549;-76
2021/10/05 10:44:00;;;;;;;;;0.00;0.00;;;;;15.32;70.46;100219.16;5075501;27;46647;-76
2021/10/05 10:46:29;;;;;;;;;3.00;0.00;;;;;15.08;70.06;100174.16;5078416;27;45545;-77
2021/10/05 10:48:57;;;;;;;;;0.00;0.00;;;;;15.05;70.24;100159.38;5081156;27;45361;-77
2021/10/05 10:51:27;;;;;;;;;0.00;0.00;;;;;15.33;69.62;100205.16;5079659;28;45426;-76
2021/10/05 10:53:54;;;;;;;;;1.00;0.00;;;;;15.36;68.92;100186.72;5077061;27;46539;-76
2021/10/05 10:56:35;;;;;;;;;0.00;0.00;;;;;15.82;68.51;100257.50;5069741;28;45851;-76
2021/10/05 10:59:06;;;;;;;;;0.00;0.00;;;;;15.62;67.83;100223.81;5065878;27;45309;-76
2021/10/05 11:01:50;;;;;;;;;0.00;0.00;;;;;15.81;67.65;100259.25;5066984;28;45758;-76
2021/10/05 11:04:17;;;;;;;;;0.00;0.00;;;;;15.39;67.49;100184.06;5079103;28;45432;-75
2021/10/05 11:06:45;;;;;;;;;0.00;0.00;;;;;15.79;67.41;100218.22;5066823;27;45473;-75
2021/10/05 11:09:11;;;;;;;;;0.00;0.00;;;;;15.60;65.94;100210.75;5060398;28;45433;-76
2021/10/05 11:11:38;;;;;;;;;0.00;0.00;;;;;15.75;65.65;100256.78;5065098;28;45541;-76
2021/10/05 11:14:10;;;;;;;;;0.50;0.00;;;;;15.74;65.76;100269.94;5066894;27;46535;-76
2021/10/05 11:16:38;;;;;;;;;0.00;0.00;;;;;15.70;65.48;100259.50;5067775;28;45444;-75
2021/10/05 11:19:16;;;;;;;;;0.00;0.00;;;;;15.98;65.59;100271.19;5080459;28;45472;-75
2021/10/05 11:21:44;;;;;;;;;0.75;0.00;;;;;16.09;64.41;100250.81;5063476;27;45686;-75
2021/10/05 11:24:14;;;;;;;;;0.00;0.00;;;;;16.20;63.55;100273.34;5074621;28;45477;-77
2021/10/05 11:26:46;;;;;;;;;0.00;0.00;;;;;16.37;63.26;100280.88;5081017;28;45496;-76